createdAt,value
2024-03-07T00:01:06.319Z,7.96
2024-03-07T00:03:33.703Z,8.00
2024-03-07T00:06:02.267Z,8.05
2024-03-07T00:08:30.973Z,8.03
2024-03-07T00:10:58.452Z,8.04
2024-03-07T00:13:26.121Z,8.12
2024-03-07T00:15:54.233Z,8.18
2024-03-07T00:18:21.882Z,8.21
2024-03-07T00:20:49.766Z,8.15
2024-03-07T00:23:18.380Z,8.30
2024-03-07T00:25:46.327Z,8.27
2024-03-07T00:28:13.888Z,8.22
2024-03-07T00:30:41.336Z,8.19
2024-03-07T00:33:09.622Z,8.18
2024-03-07T00:35:37.163Z,8.20
2024-03-07T00:38:05.218Z,8.20
2024-03-07T00:40:33.786Z,8.21
2024-03-07T00:43:01.498Z,8.28
2024-03-07T00:45:28.853Z,8.31
2024-03-07T00:47:56.385Z,8.40
2024-03-07T00:50:23.978Z,8.43
2024-03-07T00:52:51.625Z,8.37
2024-03-07T00:55:19.409Z,8.33
2024-03-07T00:57:47.624Z,8.29
2024-03-07T01:00:15.800Z,8.44
2024-03-07T01:02:45.033Z,8.64
2024-03-07T01:05:14.678Z,8.57
2024-03-07T01:07:42.540Z,8.57
2024-03-07T01:10:10.899Z,8.46
2024-03-07T01:12:38.641Z,8.55
2024-03-07T01:15:06.814Z,8.58
2024-03-07T01:17:34.655Z,8.56
2024-03-07T01:20:02.949Z,8.47
2024-03-07T01:22:30.602Z,8.49
2024-03-07T01:24:57.995Z,8.61
2024-03-07T01:27:25.971Z,8.52
2024-03-07T01:29:54.907Z,8.46
2024-03-07T01:32:22.648Z,8.50
2024-03-07T01:34:50.291Z,8.37
2024-03-07T01:37:17.785Z,8.34
2024-03-07T01:39:45.245Z,8.25
2024-03-07T01:42:12.648Z,8.18
2024-03-07T01:44:42.758Z,8.24
2024-03-07T01:47:10.350Z,8.31
2024-03-07T01:49:38.250Z,8.26
2024-03-07T01:52:06.301Z,8.15
2024-03-07T01:54:33.825Z,8.12
2024-03-07T01:57:01.586Z,8.19
2024-03-07T01:59:31.347Z,8.14
2024-03-07T02:01:58.875Z,8.06
2024-03-07T02:04:26.525Z,8.06
2024-03-07T02:06:55.050Z,8.04
2024-03-07T02:09:22.601Z,8.05
2024-03-07T02:11:50.896Z,8.10
2024-03-07T02:14:18.529Z,8.23
2024-03-07T02:16:46.394Z,8.35
2024-03-07T02:19:16.132Z,8.30
2024-03-07T02:21:43.554Z,8.26
2024-03-07T02:24:10.957Z,8.34
2024-03-07T02:26:40.770Z,8.42
2024-03-07T02:29:08.373Z,8.36
2024-03-07T02:31:40.553Z,8.38
2024-03-07T02:34:08.763Z,8.46
2024-03-07T02:36:36.378Z,8.41
2024-03-07T02:39:04.221Z,8.35
2024-03-07T02:41:32.059Z,8.31
2024-03-07T02:43:59.640Z,8.29
2024-03-07T02:46:27.456Z,8.32
2024-03-07T02:48:54.982Z,8.30
2024-03-07T02:51:22.470Z,8.30
2024-03-07T02:53:50.177Z,8.24
2024-03-07T02:56:17.829Z,8.22
2024-03-07T02:58:45.427Z,8.15
2024-03-07T03:01:13.011Z,8.08
2024-03-07T03:03:43.654Z,8.21
2024-03-07T03:06:12.359Z,8.14
2024-03-07T03:08:40.435Z,8.11
2024-03-07T03:11:10.623Z,8.16
2024-03-07T03:13:42.246Z,8.26
2024-03-07T03:16:10.838Z,8.24
2024-03-07T03:18:38.370Z,8.20
2024-03-07T03:21:06.148Z,8.19
2024-03-07T03:23:34.514Z,8.23
2024-03-07T03:26:01.963Z,8.25
2024-03-07T03:28:29.576Z,8.18
2024-03-07T03:30:57.114Z,8.15
2024-03-07T03:33:24.773Z,8.19
2024-03-07T03:35:52.449Z,8.23
2024-03-07T03:38:21.498Z,8.13
2024-03-07T03:40:49.392Z,8.15
2024-03-07T03:43:17.068Z,8.04
2024-03-07T03:45:44.509Z,8.05
2024-03-07T03:48:12.033Z,8.04
2024-03-07T03:50:39.846Z,8.05
2024-03-07T03:53:08.123Z,8.01
2024-03-07T03:55:35.550Z,8.08
2024-03-07T03:58:03.028Z,8.07
2024-03-07T04:00:31.003Z,7.92
2024-03-07T04:02:58.601Z,8.00
2024-03-07T04:05:26.217Z,7.98
2024-03-07T04:07:53.714Z,7.93
2024-03-07T04:10:21.140Z,8.06
2024-03-07T04:12:48.908Z,8.08
2024-03-07T04:15:20.385Z,8.09
2024-03-07T04:17:49.141Z,8.09
2024-03-07T04:20:19.812Z,8.10
2024-03-07T04:22:50.188Z,8.06
2024-03-07T04:25:18.576Z,8.04
2024-03-07T04:27:46.460Z,8.11
2024-03-07T04:30:16.836Z,8.10
2024-03-07T04:32:44.346Z,8.08
2024-03-07T04:35:14.120Z,8.06
2024-03-07T04:37:43.918Z,8.17
2024-03-07T04:40:19.277Z,8.18
2024-03-07T04:42:50.015Z,8.06
2024-03-07T04:45:18.165Z,7.98
2024-03-07T04:47:46.363Z,8.17
2024-03-07T04:50:14.981Z,8.34
2024-03-07T04:52:42.638Z,8.40
2024-03-07T04:55:11.755Z,8.35
2024-03-07T04:57:40.942Z,8.42
2024-03-07T05:00:17.227Z,8.33
2024-03-07T05:02:48.075Z,8.32
2024-03-07T05:05:16.021Z,8.09
2024-03-07T05:07:43.602Z,8.18
2024-03-07T05:10:11.351Z,8.24
2024-03-07T05:12:39.085Z,8.25
2024-03-07T05:15:07.592Z,8.13
2024-03-07T05:17:36.566Z,7.95
2024-03-07T05:20:10.557Z,7.81
2024-03-07T05:22:42.367Z,7.78
2024-03-07T05:25:10.632Z,7.72
2024-03-07T05:27:38.211Z,7.84
2024-03-07T05:30:10.303Z,7.86
2024-03-07T05:32:39.034Z,7.79
2024-03-07T05:35:08.318Z,7.88
2024-03-07T05:37:35.812Z,8.08
2024-03-07T05:40:05.157Z,8.14
2024-03-07T05:42:33.394Z,8.13
2024-03-07T05:45:01.297Z,8.11
2024-03-07T05:47:29.066Z,8.16
2024-03-07T05:49:57.156Z,8.18
2024-03-07T05:52:24.643Z,8.13
2024-03-07T05:54:51.987Z,8.18
2024-03-07T05:57:19.581Z,8.27
2024-03-07T05:59:49.141Z,8.22
2024-03-07T06:02:17.100Z,8.18
2024-03-07T06:04:45.069Z,8.06
2024-03-07T06:07:13.528Z,8.06
2024-03-07T06:09:41.025Z,8.05
2024-03-07T06:12:16.536Z,8.02
2024-03-07T06:14:51.028Z,7.99
2024-03-07T06:17:23.044Z,8.07
2024-03-07T06:19:50.734Z,8.03
2024-03-07T06:22:18.652Z,8.05
2024-03-07T06:24:46.258Z,8.07
2024-03-07T06:27:28.347Z,8.07
2024-03-07T06:29:56.495Z,7.99
2024-03-07T06:32:24.462Z,7.91
2024-03-07T06:34:52.125Z,8.03
2024-03-07T06:37:20.650Z,7.95
2024-03-07T06:39:49.460Z,8.05
2024-03-07T06:42:17.348Z,8.03
2024-03-07T06:44:45.421Z,8.00
2024-03-07T06:47:13.126Z,8.14
2024-03-07T06:49:41.545Z,8.10
2024-03-07T06:52:09.771Z,8.01
2024-03-07T06:54:37.438Z,7.91
2024-03-07T06:57:05.814Z,7.93
2024-03-07T06:59:33.349Z,7.97
2024-03-07T07:02:01.016Z,7.90
2024-03-07T07:04:37.068Z,7.86
2024-03-07T07:07:05.371Z,7.99
2024-03-07T07:09:32.766Z,7.94
2024-03-07T07:12:00.414Z,7.95
2024-03-07T07:14:28.209Z,8.01
2024-03-07T07:16:57.190Z,8.16
2024-03-07T07:19:24.597Z,8.20
2024-03-07T07:21:54.707Z,8.28
2024-03-07T07:24:25.100Z,8.47
2024-03-07T07:26:53.394Z,8.56
2024-03-07T07:29:21.138Z,8.54
2024-03-07T07:31:49.627Z,8.56
2024-03-07T07:34:17.207Z,8.46
2024-03-07T07:36:44.641Z,8.41
2024-03-07T07:39:18.181Z,8.38
2024-03-07T07:41:46.053Z,8.39
2024-03-07T07:44:15.239Z,8.49
2024-03-07T07:46:42.862Z,8.46
2024-03-07T07:49:10.377Z,8.47
2024-03-07T07:51:37.738Z,8.40
2024-03-07T07:54:05.419Z,8.33
2024-03-07T07:56:33.770Z,8.49
2024-03-07T07:59:01.412Z,8.61
2024-03-07T08:01:29.294Z,8.55
2024-03-07T08:03:57.042Z,8.55
2024-03-07T08:06:25.282Z,8.57
2024-03-07T08:08:53.145Z,8.72
2024-03-07T08:11:20.779Z,8.86
2024-03-07T08:13:51.923Z,8.94
2024-03-07T08:16:19.582Z,9.06
2024-03-07T08:18:47.189Z,9.14
2024-03-07T08:21:15.210Z,9.15
2024-03-07T08:23:42.870Z,9.11
2024-03-07T08:26:10.502Z,9.07
2024-03-07T08:28:39.062Z,9.13
2024-03-07T08:31:06.524Z,9.18
2024-03-07T08:33:34.776Z,9.30
2024-03-07T08:36:02.607Z,9.27
2024-03-07T08:38:30.601Z,9.17
2024-03-07T08:40:58.242Z,9.17
2024-03-07T08:43:25.979Z,9.22
2024-03-07T08:45:54.084Z,9.20
2024-03-07T08:48:21.787Z,9.19
2024-03-07T08:50:49.504Z,9.25
2024-03-07T08:53:17.029Z,9.38
2024-03-07T08:55:44.689Z,9.51
2024-03-07T08:58:12.776Z,9.52
2024-03-07T09:00:40.666Z,9.59
2024-03-07T09:03:12.589Z,9.66
2024-03-07T09:05:41.963Z,9.60
2024-03-07T09:08:10.061Z,9.48
2024-03-07T09:10:37.828Z,9.63
2024-03-07T09:13:07.538Z,9.57
2024-03-07T09:15:35.314Z,9.51
2024-03-07T09:18:05.352Z,9.40
2024-03-07T09:20:33.322Z,9.28
2024-03-07T09:23:01.566Z,9.21
2024-03-07T09:25:29.485Z,9.19
2024-03-07T09:27:57.443Z,9.20
2024-03-07T09:30:28.878Z,9.23
2024-03-07T09:32:56.939Z,9.35
2024-03-07T09:35:25.142Z,9.36
2024-03-07T09:37:52.761Z,9.44
2024-03-07T09:40:26.428Z,9.57
2024-03-07T09:42:56.051Z,9.69
2024-03-07T09:45:24.553Z,9.77
2024-03-07T09:50:19.576Z,9.33
2024-03-07T09:52:46.309Z,10.95
2024-03-07T09:55:14.063Z,10.81
2024-03-07T09:57:40.829Z,10.69
2024-03-07T10:00:09.356Z,10.85
2024-03-07T10:02:42.634Z,11.00
2024-03-07T10:05:10.095Z,10.87
2024-03-07T10:07:37.647Z,10.71
2024-03-07T10:10:10.637Z,10.66
2024-03-07T10:12:38.762Z,10.67
2024-03-07T10:15:06.247Z,10.65
2024-03-07T10:17:33.555Z,10.72
2024-03-07T10:20:01.483Z,10.64
2024-03-07T10:22:28.800Z,10.63
2024-03-07T10:24:59.235Z,10.63
2024-03-07T10:27:28.457Z,10.60
2024-03-07T10:29:55.455Z,10.64
2024-03-07T10:32:23.397Z,10.84
2024-03-07T10:34:53.708Z,10.90
2024-03-07T10:37:25.526Z,10.99
2024-03-07T10:39:52.265Z,11.02
2024-03-07T10:42:19.814Z,11.09
2024-03-07T10:44:47.761Z,11.19
2024-03-07T10:47:19.370Z,11.35
2024-03-07T10:50:15.341Z,11.36
2024-03-07T10:52:42.128Z,11.21
2024-03-07T10:55:37.392Z,10.95
2024-03-07T10:58:12.021Z,10.88
2024-03-07T11:00:40.486Z,10.86
2024-03-07T11:03:07.667Z,10.92
2024-03-07T11:05:34.645Z,10.93
2024-03-07T11:08:12.505Z,10.85
2024-03-07T11:10:40.223Z,10.79
2024-03-07T11:13:10.814Z,10.68
2024-03-07T11:15:37.495Z,10.79
2024-03-07T11:18:05.012Z,11.03
2024-03-07T11:20:39.161Z,11.03
2024-03-07T11:23:33.952Z,11.17
2024-03-07T11:26:08.116Z,11.31
2024-03-07T11:28:37.967Z,11.57
2024-03-07T11:31:14.901Z,11.54
2024-03-07T11:33:42.530Z,11.57
2024-03-07T11:36:12.628Z,11.54
2024-03-07T11:38:46.295Z,11.45
2024-03-07T11:41:14.212Z,11.36
2024-03-07T11:43:42.995Z,11.32
2024-03-07T11:46:17.119Z,11.42
2024-03-07T11:48:44.167Z,11.18
2024-03-07T11:51:15.811Z,11.10
2024-03-07T11:53:42.684Z,11.20
2024-03-07T11:56:16.873Z,11.38
2024-03-07T11:58:45.116Z,11.50
2024-03-07T12:01:14.341Z,11.31
2024-03-07T12:03:41.349Z,11.17
2024-03-07T12:06:12.963Z,11.21
2024-03-07T12:08:42.199Z,11.35
2024-03-07T12:11:12.735Z,11.42
2024-03-07T12:13:39.616Z,11.30
2024-03-07T12:16:08.502Z,11.31
2024-03-07T12:18:36.618Z,11.35
2024-03-07T12:21:07.241Z,11.51
2024-03-07T12:23:34.176Z,11.67
2024-03-07T12:26:04.391Z,11.63
2024-03-07T12:28:34.933Z,11.64
2024-03-07T12:31:02.835Z,11.82
2024-03-07T12:33:31.539Z,11.88
2024-03-07T12:36:06.313Z,11.87
2024-03-07T12:38:36.130Z,11.77
2024-03-07T12:41:17.722Z,11.61
2024-03-07T12:43:48.113Z,11.58
2024-03-07T12:46:16.201Z,11.55
2024-03-07T12:48:45.587Z,11.53
2024-03-07T12:51:17.506Z,11.49
2024-03-07T12:53:44.481Z,11.41
2024-03-07T12:56:11.551Z,11.45
2024-03-07T12:58:38.290Z,11.41
2024-03-07T13:01:05.133Z,11.32
2024-03-07T13:03:32.647Z,11.30
2024-03-07T13:06:03.106Z,11.28
2024-03-07T13:08:30.505Z,11.43
2024-03-07T13:10:59.496Z,11.55
2024-03-07T13:13:26.243Z,11.60
2024-03-07T13:15:55.267Z,11.59
2024-03-07T13:18:22.610Z,11.53
2024-03-07T13:20:49.470Z,11.62
2024-03-07T13:23:16.600Z,11.53
2024-03-07T13:25:44.807Z,11.51
2024-03-07T13:28:23.800Z,11.62
2024-03-07T13:30:50.912Z,11.59
2024-03-07T13:33:21.521Z,11.43
2024-03-07T13:35:49.043Z,11.46
2024-03-07T13:38:16.112Z,11.53
2024-03-07T13:40:42.976Z,11.61
2024-03-07T13:43:10.097Z,11.54
2024-03-07T13:45:41.528Z,11.61
2024-03-07T13:48:13.766Z,11.61
2024-03-07T13:50:55.388Z,11.47
2024-03-07T13:53:27.420Z,11.25
2024-03-07T13:56:07.839Z,11.32
2024-03-07T13:58:47.995Z,11.19
2024-03-07T14:01:53.748Z,10.98
2024-03-07T14:04:20.522Z,10.83
2024-03-07T14:07:17.990Z,10.70
2024-03-07T14:10:25.276Z,10.49
2024-03-07T14:13:20.638Z,10.40
2024-03-07T14:16:07.890Z,10.37
2024-03-07T14:18:53.649Z,10.32
2024-03-07T14:21:31.855Z,10.26
2024-03-07T14:24:43.478Z,10.37
2024-03-07T14:27:32.560Z,10.28
2024-03-07T14:30:45.577Z,10.19
2024-03-07T14:33:14.058Z,10.17
2024-03-07T14:36:06.898Z,10.15
2024-03-07T14:38:55.601Z,10.01
2024-03-07T14:41:26.213Z,9.85
2024-03-07T14:43:53.066Z,9.79
2024-03-07T14:46:20.549Z,9.76
2024-03-07T14:48:50.177Z,9.81
2024-03-07T14:51:18.265Z,9.80
2024-03-07T14:53:45.281Z,9.77
2024-03-07T14:56:13.434Z,9.69
2024-03-07T14:58:42.996Z,9.58
2024-03-07T15:01:11.739Z,9.58
2024-03-07T15:03:39.205Z,9.42
2024-03-07T15:06:09.168Z,9.35
2024-03-07T15:08:36.181Z,9.26
2024-03-07T15:11:13.804Z,9.17
2024-03-07T15:13:40.536Z,9.11
2024-03-07T15:16:11.140Z,9.16
2024-03-07T15:18:44.038Z,9.08
2024-03-07T15:21:16.223Z,8.98
2024-03-07T15:23:45.363Z,8.85
2024-03-07T15:26:12.486Z,8.85
2024-03-07T15:28:39.394Z,8.90
2024-03-07T15:31:14.024Z,8.79
2024-03-07T15:33:44.554Z,8.75
2024-03-07T15:36:11.907Z,8.68
2024-03-07T15:38:38.672Z,8.57
2024-03-07T15:41:07.309Z,8.55
2024-03-07T15:43:34.057Z,8.38
2024-03-07T15:46:01.043Z,8.34
2024-03-07T15:48:28.344Z,8.28
2024-03-07T15:50:58.265Z,8.15
2024-03-07T15:53:25.527Z,7.96
2024-03-07T15:55:52.461Z,7.89
2024-03-07T15:58:19.091Z,7.80
2024-03-07T16:00:49.959Z,7.80
2024-03-07T16:03:16.663Z,7.76
2024-03-07T16:05:46.907Z,7.73
2024-03-07T16:08:16.657Z,7.70
2024-03-07T16:10:43.727Z,7.73
2024-03-07T16:13:15.840Z,7.71
2024-03-07T16:15:47.143Z,7.65
2024-03-07T16:18:14.897Z,7.55
2024-03-07T16:20:42.129Z,7.47
2024-03-07T16:23:09.069Z,7.40
2024-03-07T16:25:39.753Z,7.35
2024-03-07T16:28:07.200Z,7.26
2024-03-07T16:30:34.675Z,7.22
2024-03-07T16:33:01.947Z,7.17
2024-03-07T16:35:35.249Z,7.19
2024-03-07T16:38:03.612Z,7.14
2024-03-07T16:40:30.709Z,7.19
2024-03-07T16:42:59.024Z,7.16
2024-03-07T16:45:28.054Z,7.30
2024-03-07T16:47:57.603Z,7.29
2024-03-07T16:50:31.989Z,7.35
2024-03-07T16:53:05.343Z,7.24
2024-03-07T16:55:32.901Z,7.17
2024-03-07T17:00:31.585Z,7.23
2024-03-07T17:03:09.937Z,7.10
2024-03-07T17:05:39.966Z,6.93
2024-03-07T17:08:07.583Z,6.89
2024-03-07T17:10:36.673Z,6.89
2024-03-07T17:13:07.780Z,6.85
2024-03-07T17:15:34.485Z,6.91
2024-03-07T17:18:01.589Z,6.83
2024-03-07T17:20:29.774Z,6.78
2024-03-07T17:22:56.941Z,6.65
2024-03-07T17:25:24.700Z,6.51
2024-03-07T17:27:52.393Z,6.51
2024-03-07T17:30:25.386Z,6.53
2024-03-07T17:32:52.737Z,6.64
2024-03-07T17:35:20.303Z,6.60
2024-03-07T17:37:53.331Z,6.52
2024-03-07T17:40:21.079Z,6.47
2024-03-07T17:42:50.865Z,6.41
2024-03-07T17:45:34.599Z,6.31
2024-03-07T17:48:03.470Z,6.22
2024-03-07T17:50:33.651Z,6.19
2024-03-07T17:53:08.136Z,6.16
2024-03-07T17:55:35.021Z,6.02
2024-03-07T17:58:03.781Z,6.06
2024-03-07T18:00:32.661Z,6.07
2024-03-07T18:03:01.238Z,6.07
2024-03-07T18:05:35.259Z,5.94
2024-03-07T18:08:21.197Z,5.79
2024-03-07T18:10:56.155Z,5.70
2024-03-07T18:13:23.222Z,5.43
2024-03-07T18:15:51.295Z,5.35
2024-03-07T18:18:19.412Z,5.31
2024-03-07T18:20:47.382Z,5.29
2024-03-07T18:23:17.573Z,5.33
2024-03-07T18:25:45.795Z,5.09
2024-03-07T18:28:20.441Z,5.00
2024-03-07T18:30:51.229Z,4.97
2024-03-07T18:33:18.786Z,4.88
2024-03-07T18:35:46.555Z,4.84
2024-03-07T18:38:14.466Z,4.80
2024-03-07T18:40:46.534Z,4.73
2024-03-07T18:43:14.005Z,4.74
2024-03-07T18:45:47.578Z,4.80
2024-03-07T18:48:15.423Z,4.84
2024-03-07T18:50:47.824Z,4.89
2024-03-07T18:53:18.919Z,4.89
2024-03-07T18:55:46.852Z,4.90
2024-03-07T18:58:13.812Z,4.86
2024-03-07T19:00:47.752Z,4.87
2024-03-07T19:03:15.290Z,4.80
2024-03-07T19:05:44.754Z,4.78
2024-03-07T19:08:17.907Z,4.79
2024-03-07T19:10:45.650Z,4.76
2024-03-07T19:13:16.985Z,4.72
2024-03-07T19:15:44.320Z,4.80
2024-03-07T19:18:13.442Z,4.86
2024-03-07T19:20:44.457Z,4.82
2024-03-07T19:23:12.967Z,4.75
2024-03-07T19:25:40.549Z,4.79
2024-03-07T19:28:11.944Z,4.78
2024-03-07T19:30:41.036Z,4.52
2024-03-07T19:33:21.207Z,4.49
2024-03-07T19:35:51.171Z,4.53
2024-03-07T19:38:18.363Z,4.58
2024-03-07T19:40:45.723Z,4.58
2024-03-07T19:43:12.494Z,4.64
2024-03-07T19:45:40.336Z,4.58
2024-03-07T19:48:10.478Z,4.52
2024-03-07T19:50:37.840Z,4.47
2024-03-07T19:53:09.248Z,4.51
2024-03-07T19:55:36.094Z,4.50
2024-03-07T19:58:03.140Z,4.50
2024-03-07T20:00:31.722Z,4.45
2024-03-07T20:03:02.432Z,4.39
2024-03-07T20:05:32.803Z,4.22
2024-03-07T20:07:59.468Z,4.21
2024-03-07T20:10:29.523Z,4.21
2024-03-07T20:12:57.129Z,4.18
2024-03-07T20:15:24.532Z,4.15
2024-03-07T20:17:51.753Z,4.16
2024-03-07T20:20:24.896Z,4.21
2024-03-07T20:22:52.967Z,4.23
2024-03-07T20:25:20.245Z,4.07
2024-03-07T20:27:53.192Z,3.94
2024-03-07T20:30:20.477Z,3.90
2024-03-07T20:32:47.452Z,4.00
2024-03-07T20:35:18.656Z,3.89
2024-03-07T20:37:51.388Z,3.65
2024-03-07T20:40:21.384Z,3.51
2024-03-07T20:42:48.129Z,3.58
2024-03-07T20:45:15.788Z,3.72
2024-03-07T20:47:44.605Z,3.75
2024-03-07T20:50:15.909Z,3.80
2024-03-07T20:52:46.317Z,3.89
2024-03-07T20:55:16.960Z,3.84
2024-03-07T20:57:46.682Z,3.73
2024-03-07T21:00:17.487Z,3.67
2024-03-07T21:02:44.708Z,3.78
2024-03-07T21:05:11.691Z,3.80
2024-03-07T21:07:40.789Z,3.77
2024-03-07T21:10:13.730Z,3.78
2024-03-07T21:12:41.058Z,3.68
2024-03-07T21:15:09.305Z,3.59
2024-03-07T21:17:36.844Z,3.55
2024-03-07T21:20:13.117Z,3.40
2024-03-07T21:22:41.088Z,3.38
2024-03-07T21:25:08.624Z,3.43
2024-03-07T21:27:38.393Z,3.39
2024-03-07T21:30:06.299Z,3.40
2024-03-07T21:32:33.749Z,3.38
2024-03-07T21:35:00.535Z,3.50
2024-03-07T21:37:27.409Z,3.53
2024-03-07T21:39:55.132Z,3.54
2024-03-07T21:42:21.904Z,3.52
2024-03-07T21:44:48.686Z,3.51
2024-03-07T21:47:15.762Z,3.35
2024-03-07T21:49:42.827Z,3.13
2024-03-07T21:52:10.209Z,3.21
2024-03-07T21:54:43.902Z,3.17
2024-03-07T21:57:12.001Z,3.25
2024-03-07T21:59:39.642Z,3.15
2024-03-07T22:02:07.591Z,3.06
2024-03-07T22:07:15.520Z,1.74
2024-03-07T22:09:42.896Z,3.35
2024-03-07T22:12:09.881Z,3.40
2024-03-07T22:14:38.428Z,3.31
2024-03-07T22:17:05.368Z,3.25
2024-03-07T22:19:35.239Z,3.25
2024-03-07T22:22:04.503Z,3.10
2024-03-07T22:24:31.443Z,3.21
2024-03-07T22:26:58.530Z,3.13
2024-03-07T22:29:25.463Z,3.05
2024-03-07T22:31:52.418Z,2.99
2024-03-07T22:34:19.178Z,3.18
2024-03-07T22:36:49.483Z,3.10
2024-03-07T22:39:18.597Z,3.07
2024-03-07T22:41:48.792Z,3.03
2024-03-07T22:44:15.563Z,3.12
2024-03-07T22:46:42.899Z,3.14
2024-03-07T22:49:10.810Z,3.19
2024-03-07T22:51:39.300Z,3.11
2024-03-07T22:54:08.386Z,2.95
2024-03-07T22:56:36.470Z,2.94
2024-03-07T22:59:03.952Z,3.01
2024-03-07T23:01:31.803Z,3.16
2024-03-07T23:06:45.058Z,3.27
2024-03-07T23:09:12.297Z,3.15
2024-03-07T23:11:40.366Z,3.21
2024-03-07T23:14:08.043Z,3.14
2024-03-07T23:16:35.151Z,3.01
2024-03-07T23:19:03.482Z,2.93
2024-03-07T23:21:30.456Z,3.05
2024-03-07T23:23:57.052Z,3.13
2024-03-07T23:26:24.497Z,3.09
2024-03-07T23:28:51.127Z,3.11
2024-03-07T23:31:18.496Z,3.20
2024-03-07T23:33:45.281Z,3.14
2024-03-07T23:36:12.856Z,2.96
2024-03-07T23:38:40.285Z,2.81
2024-03-07T23:41:07.019Z,2.79
2024-03-07T23:43:33.599Z,2.85
2024-03-07T23:46:00.237Z,2.82
2024-03-07T23:48:27.010Z,2.71
2024-03-07T23:50:53.839Z,2.68
2024-03-07T23:53:21.973Z,2.65
2024-03-07T23:55:52.588Z,2.67
2024-03-07T23:58:19.101Z,2.69
